sensor_id;sensor_type;location;lat;lon;timestamp;P1;durP1;ratioP1;P2;durP2;ratioP2
1577;SDS011;57623;53.608;10.004;2022-10-03T00:01:59;6.80;;;1.83;;
1577;SDS011;57623;53.608;10.004;2022-10-03T00:05:26;4.73;;;1.80;;
1577;SDS011;57623;53.608;10.004;2022-10-03T00:15:40;8.90;;;2.13;;
1577;SDS011;57623;53.608;10.004;2022-10-03T00:18:47;9.70;;;2.17;;
1577;SDS011;57623;53.608;10.004;2022-10-03T00:21:55;5.77;;;1.97;;
1577;SDS011;57623;53.608;10.004;2022-10-03T00:24:58;3.90;;;1.50;;
1577;SDS011;57623;53.608;10.004;2022-10-03T00:28:05;6.83;;;2.23;;
1577;SDS011;57623;53.608;10.004;2022-10-03T00:31:48;6.40;;;1.97;;
1577;SDS011;57623;53.608;10.004;2022-10-03T00:34:52;5.83;;;1.80;;
1577;SDS011;57623;53.608;10.004;2022-10-03T00:38:04;4.93;;;1.97;;
1577;SDS011;57623;53.608;10.004;2022-10-03T00:44:41;3.47;;;1.63;;
1577;SDS011;57623;53.608;10.004;2022-10-03T00:47:52;5.13;;;2.40;;
1577;SDS011;57623;53.608;10.004;2022-10-03T00:51:11;9.97;;;2.30;;
1577;SDS011;57623;53.608;10.004;2022-10-03T01:00:44;10.63;;;2.33;;
1577;SDS011;57623;53.608;10.004;2022-10-03T01:03:56;9.13;;;2.63;;
1577;SDS011;57623;53.608;10.004;2022-10-03T01:06:57;6.70;;;2.03;;
1577;SDS011;57623;53.608;10.004;2022-10-03T01:10:00;10.07;;;2.70;;
1577;SDS011;57623;53.608;10.004;2022-10-03T01:13:11;11.50;;;2.10;;
1577;SDS011;57623;53.608;10.004;2022-10-03T01:17:00;5.60;;;1.60;;
1577;SDS011;57623;53.608;10.004;2022-10-03T01:29:19;5.53;;;2.30;;
1577;SDS011;57623;53.608;10.004;2022-10-03T01:32:36;9.87;;;2.00;;
1577;SDS011;57623;53.608;10.004;2022-10-03T01:35:55;14.70;;;2.87;;
1577;SDS011;57623;53.608;10.004;2022-10-03T01:38:59;7.70;;;2.03;;
1577;SDS011;57623;53.608;10.004;2022-10-03T01:41:54;6.00;;;1.87;;
1577;SDS011;57623;53.608;10.004;2022-10-03T01:45:04;5.10;;;1.80;;
1577;SDS011;57623;53.608;10.004;2022-10-03T01:48:19;7.70;;;2.23;;
1577;SDS011;57623;53.608;10.004;2022-10-03T01:51:25;5.37;;;1.70;;
1577;SDS011;57623;53.608;10.004;2022-10-03T01:54:36;7.80;;;2.00;;
1577;SDS011;57623;53.608;10.004;2022-10-03T01:57:52;8.97;;;2.67;;
1577;SDS011;57623;53.608;10.004;2022-10-03T02:00:58;4.53;;;2.00;;
1577;SDS011;57623;53.608;10.004;2022-10-03T02:04:11;7.97;;;2.00;;
1577;SDS011;57623;53.608;10.004;2022-10-03T02:07:38;7.77;;;1.90;;
1577;SDS011;57623;53.608;10.004;2022-10-03T02:10:40;8.33;;;1.73;;
1577;SDS011;57623;53.608;10.004;2022-10-03T02:13:49;7.67;;;3.20;;
1577;SDS011;57623;53.608;10.004;2022-10-03T02:20:22;3.93;;;1.50;;
1577;SDS011;57623;53.608;10.004;2022-10-03T02:23:36;6.60;;;2.00;;
1577;SDS011;57623;53.608;10.004;2022-10-03T02:30:04;6.90;;;1.70;;
1577;SDS011;57623;53.608;10.004;2022-10-03T02:46:45;5.03;;;1.97;;
1577;SDS011;57623;53.608;10.004;2022-10-03T02:56:22;6.87;;;2.00;;
1577;SDS011;57623;53.608;10.004;2022-10-03T02:59:41;5.37;;;1.90;;
1577;SDS011;57623;53.608;10.004;2022-10-03T03:16:31;3.40;;;1.67;;
1577;SDS011;57623;53.608;10.004;2022-10-03T03:19:43;3.43;;;1.43;;
1577;SDS011;57623;53.608;10.004;2022-10-03T03:22:53;5.77;;;1.40;;
1577;SDS011;57623;53.608;10.004;2022-10-03T03:25:55;8.07;;;2.03;;
1577;SDS011;57623;53.608;10.004;2022-10-03T03:29:07;6.67;;;2.07;;
1577;SDS011;57623;53.608;10.004;2022-10-03T03:32:12;6.07;;;2.17;;
1577;SDS011;57623;53.608;10.004;2022-10-03T03:35:13;7.67;;;2.80;;
1577;SDS011;57623;53.608;10.004;2022-10-03T03:38:19;11.10;;;2.37;;
1577;SDS011;57623;53.608;10.004;2022-10-03T03:48:52;6.83;;;2.00;;
1577;SDS011;57623;53.608;10.004;2022-10-03T03:52:02;8.67;;;2.10;;
1577;SDS011;57623;53.608;10.004;2022-10-03T03:55:20;5.53;;;1.70;;
1577;SDS011;57623;53.608;10.004;2022-10-03T03:58:27;3.20;;;1.60;;
1577;SDS011;57623;53.608;10.004;2022-10-03T04:01:56;4.60;;;1.60;;
1577;SDS011;57623;53.608;10.004;2022-10-03T04:05:06;3.30;;;1.70;;
1577;SDS011;57623;53.608;10.004;2022-10-03T04:08:18;8.33;;;1.90;;
1577;SDS011;57623;53.608;10.004;2022-10-03T04:11:20;5.13;;;1.60;;
1577;SDS011;57623;53.608;10.004;2022-10-03T04:14:28;7.07;;;1.70;;
1577;SDS011;57623;53.608;10.004;2022-10-03T04:17:53;4.20;;;1.50;;
1577;SDS011;57623;53.608;10.004;2022-10-03T04:21:27;6.70;;;2.07;;
1577;SDS011;57623;53.608;10.004;2022-10-03T04:24:23;2.97;;;1.40;;
1577;SDS011;57623;53.608;10.004;2022-10-03T04:28:04;5.40;;;1.93;;
1577;SDS011;57623;53.608;10.004;2022-10-03T04:31:07;5.77;;;1.90;;
1577;SDS011;57623;53.608;10.004;2022-10-03T04:34:41;6.37;;;2.10;;
1577;SDS011;57623;53.608;10.004;2022-10-03T04:41:04;7.10;;;2.20;;
1577;SDS011;57623;53.608;10.004;2022-10-03T04:44:13;4.47;;;1.60;;
1577;SDS011;57623;53.608;10.004;2022-10-03T04:47:30;6.30;;;2.10;;
1577;SDS011;57623;53.608;10.004;2022-10-03T04:50:48;6.10;;;2.27;;
1577;SDS011;57623;53.608;10.004;2022-10-03T04:53:51;8.47;;;2.00;;
1577;SDS011;57623;53.608;10.004;2022-10-03T04:57:24;9.60;;;1.90;;
1577;SDS011;57623;53.608;10.004;2022-10-03T05:00:47;7.30;;;2.73;;
1577;SDS011;57623;53.608;10.004;2022-10-03T05:04:05;6.30;;;1.90;;
1577;SDS011;57623;53.608;10.004;2022-10-03T05:07:13;6.60;;;1.80;;
1577;SDS011;57623;53.608;10.004;2022-10-03T05:10:31;9.20;;;2.30;;
1577;SDS011;57623;53.608;10.004;2022-10-03T05:13:49;7.90;;;1.87;;
1577;SDS011;57623;53.608;10.004;2022-10-03T05:16:55;5.70;;;2.53;;
1577;SDS011;57623;53.608;10.004;2022-10-03T05:20:13;7.77;;;2.00;;
1577;SDS011;57623;53.608;10.004;2022-10-03T05:23:26;7.50;;;1.80;;
1577;SDS011;57623;53.608;10.004;2022-10-03T05:26:24;4.57;;;1.90;;
1577;SDS011;57623;53.608;10.004;2022-10-03T05:29:48;7.37;;;2.30;;
1577;SDS011;57623;53.608;10.004;2022-10-03T05:33:05;4.97;;;1.70;;
1577;SDS011;57623;53.608;10.004;2022-10-03T05:36:13;5.83;;;1.77;;
1577;SDS011;57623;53.608;10.004;2022-10-03T05:39:23;7.50;;;2.37;;
1577;SDS011;57623;53.608;10.004;2022-10-03T05:45:48;4.53;;;1.63;;
1577;SDS011;57623;53.608;10.004;2022-10-03T05:49:05;5.87;;;2.30;;
1577;SDS011;57623;53.608;10.004;2022-10-03T05:52:31;6.27;;;2.37;;
1577;SDS011;57623;53.608;10.004;2022-10-03T05:55:50;6.40;;;1.70;;
1577;SDS011;57623;53.608;10.004;2022-10-03T05:59:03;9.67;;;2.30;;
1577;SDS011;57623;53.608;10.004;2022-10-03T06:05:19;10.00;;;2.07;;
1577;SDS011;57623;53.608;10.004;2022-10-03T06:08:16;3.67;;;1.60;;
1577;SDS011;57623;53.608;10.004;2022-10-03T06:11:17;9.07;;;2.80;;
1577;SDS011;57623;53.608;10.004;2022-10-03T06:17:46;7.57;;;3.03;;
1577;SDS011;57623;53.608;10.004;2022-10-03T06:27:12;7.50;;;1.73;;
1577;SDS011;57623;53.608;10.004;2022-10-03T06:30:10;4.50;;;1.80;;
1577;SDS011;57623;53.608;10.004;2022-10-03T06:36:26;11.30;;;3.20;;
1577;SDS011;57623;53.608;10.004;2022-10-03T06:42:45;8.00;;;2.67;;
1577;SDS011;57623;53.608;10.004;2022-10-03T06:52:08;11.20;;;2.97;;
1577;SDS011;57623;53.608;10.004;2022-10-03T07:04:54;9.20;;;2.97;;
1577;SDS011;57623;53.608;10.004;2022-10-03T07:08:12;7.73;;;2.63;;
1577;SDS011;57623;53.608;10.004;2022-10-03T07:11:16;9.27;;;2.33;;
1577;SDS011;57623;53.608;10.004;2022-10-03T07:17:45;13.00;;;2.90;;
1577;SDS011;57623;53.608;10.004;2022-10-03T07:21:02;12.70;;;2.67;;
1577;SDS011;57623;53.608;10.004;2022-10-03T07:27:17;8.53;;;2.53;;
1577;SDS011;57623;53.608;10.004;2022-10-03T07:30:08;6.17;;;2.77;;
1577;SDS011;57623;53.608;10.004;2022-10-03T07:36:21;7.57;;;2.30;;
1577;SDS011;57623;53.608;10.004;2022-10-03T07:39:44;7.00;;;2.37;;
1577;SDS011;57623;53.608;10.004;2022-10-03T07:42:50;6.80;;;2.50;;
1577;SDS011;57623;53.608;10.004;2022-10-03T07:45:59;4.00;;;1.63;;
1577;SDS011;57623;53.608;10.004;2022-10-03T07:49:01;6.80;;;2.13;;
1577;SDS011;57623;53.608;10.004;2022-10-03T07:52:01;6.60;;;2.23;;
1577;SDS011;57623;53.608;10.004;2022-10-03T07:55:08;8.53;;;2.40;;
1577;SDS011;57623;53.608;10.004;2022-10-03T07:58:08;9.67;;;2.60;;
1577;SDS011;57623;53.608;10.004;2022-10-03T08:04:16;7.60;;;2.50;;
1577;SDS011;57623;53.608;10.004;2022-10-03T08:07:19;5.57;;;2.00;;
1577;SDS011;57623;53.608;10.004;2022-10-03T08:10:15;8.80;;;3.33;;
1577;SDS011;57623;53.608;10.004;2022-10-03T08:13:09;7.93;;;2.07;;
1577;SDS011;57623;53.608;10.004;2022-10-03T08:16:06;4.13;;;1.63;;
1577;SDS011;57623;53.608;10.004;2022-10-03T08:19:02;8.13;;;2.57;;
1577;SDS011;57623;53.608;10.004;2022-10-03T08:21:57;7.57;;;2.57;;
1577;SDS011;57623;53.608;10.004;2022-10-03T08:25:01;5.93;;;1.97;;
1577;SDS011;57623;53.608;10.004;2022-10-03T08:28:05;4.90;;;1.90;;
1577;SDS011;57623;53.608;10.004;2022-10-03T08:31:10;9.60;;;2.30;;
1577;SDS011;57623;53.608;10.004;2022-10-03T08:34:08;7.57;;;2.10;;
1577;SDS011;57623;53.608;10.004;2022-10-03T08:37:17;7.90;;;2.17;;
1577;SDS011;57623;53.608;10.004;2022-10-03T08:40:34;5.73;;;2.03;;
1577;SDS011;57623;53.608;10.004;2022-10-03T08:43:34;8.10;;;2.60;;
1577;SDS011;57623;53.608;10.004;2022-10-03T08:46:34;7.27;;;2.20;;
1577;SDS011;57623;53.608;10.004;2022-10-03T08:52:40;7.63;;;2.00;;
1577;SDS011;57623;53.608;10.004;2022-10-03T08:55:48;6.63;;;2.03;;
1577;SDS011;57623;53.608;10.004;2022-10-03T08:58:57;6.07;;;1.83;;
1577;SDS011;57623;53.608;10.004;2022-10-03T09:05:06;7.10;;;2.37;;
1577;SDS011;57623;53.608;10.004;2022-10-03T09:08:22;7.00;;;2.10;;
1577;SDS011;57623;53.608;10.004;2022-10-03T09:11:32;7.83;;;2.33;;
1577;SDS011;57623;53.608;10.004;2022-10-03T09:14:30;8.53;;;2.23;;
1577;SDS011;57623;53.608;10.004;2022-10-03T09:20:34;6.10;;;1.93;;
1577;SDS011;57623;53.608;10.004;2022-10-03T09:23:32;6.80;;;1.80;;
1577;SDS011;57623;53.608;10.004;2022-10-03T09:26:35;4.73;;;1.80;;
1577;SDS011;57623;53.608;10.004;2022-10-03T09:29:42;4.50;;;2.30;;
1577;SDS011;57623;53.608;10.004;2022-10-03T09:39:01;7.80;;;2.53;;
1577;SDS011;57623;53.608;10.004;2022-10-03T09:45:07;4.10;;;2.20;;
1577;SDS011;57623;53.608;10.004;2022-10-03T09:51:20;6.13;;;2.00;;
1577;SDS011;57623;53.608;10.004;2022-10-03T09:54:24;5.53;;;2.33;;
1577;SDS011;57623;53.608;10.004;2022-10-03T10:00:48;9.40;;;2.70;;
1577;SDS011;57623;53.608;10.004;2022-10-03T10:07:06;9.90;;;2.50;;
1577;SDS011;57623;53.608;10.004;2022-10-03T10:10:20;7.53;;;2.40;;
1577;SDS011;57623;53.608;10.004;2022-10-03T10:13:22;3.83;;;1.90;;
1577;SDS011;57623;53.608;10.004;2022-10-03T10:16:52;5.63;;;2.60;;
1577;SDS011;57623;53.608;10.004;2022-10-03T10:19:45;5.87;;;1.70;;
1577;SDS011;57623;53.608;10.004;2022-10-03T10:23:01;6.93;;;1.70;;
1577;SDS011;57623;53.608;10.004;2022-10-03T10:26:02;5.30;;;2.60;;
1577;SDS011;57623;53.608;10.004;2022-10-03T10:38:32;3.03;;;1.63;;
1577;SDS011;57623;53.608;10.004;2022-10-03T10:47:57;4.57;;;1.20;;
1577;SDS011;57623;53.608;10.004;2022-10-03T10:57:18;6.10;;;1.30;;
1577;SDS011;57623;53.608;10.004;2022-10-03T11:00:20;3.50;;;1.50;;
1577;SDS011;57623;53.608;10.004;2022-10-03T11:16:10;2.10;;;1.40;;
1577;SDS011;57623;53.608;10.004;2022-10-03T11:22:29;8.73;;;2.07;;
1577;SDS011;57623;53.608;10.004;2022-10-03T11:28:52;6.57;;;1.80;;
1577;SDS011;57623;53.608;10.004;2022-10-03T11:38:30;6.37;;;1.80;;
1577;SDS011;57623;53.608;10.004;2022-10-03T11:41:25;3.67;;;1.47;;
1577;SDS011;57623;53.608;10.004;2022-10-03T11:44:23;5.03;;;1.53;;
1577;SDS011;57623;53.608;10.004;2022-10-03T11:47:26;5.27;;;2.10;;
1577;SDS011;57623;53.608;10.004;2022-10-03T11:50:28;5.40;;;1.83;;
1577;SDS011;57623;53.608;10.004;2022-10-03T11:53:20;3.50;;;1.50;;
1577;SDS011;57623;53.608;10.004;2022-10-03T11:56:23;3.27;;;1.30;;
1577;SDS011;57623;53.608;10.004;2022-10-03T12:02:35;5.10;;;1.50;;
1577;SDS011;57623;53.608;10.004;2022-10-03T12:05:34;3.83;;;1.40;;
1577;SDS011;57623;53.608;10.004;2022-10-03T12:08:27;6.33;;;1.67;;
1577;SDS011;57623;53.608;10.004;2022-10-03T12:11:37;4.93;;;1.70;;
1577;SDS011;57623;53.608;10.004;2022-10-03T12:14:30;5.27;;;2.07;;
1577;SDS011;57623;53.608;10.004;2022-10-03T12:17:20;3.10;;;1.60;;
1577;SDS011;57623;53.608;10.004;2022-10-03T12:20:17;5.00;;;1.50;;
1577;SDS011;57623;53.608;10.004;2022-10-03T12:23:15;6.20;;;2.73;;
1577;SDS011;57623;53.608;10.004;2022-10-03T12:26:07;5.87;;;2.70;;
1577;SDS011;57623;53.608;10.004;2022-10-03T12:28:59;5.20;;;2.40;;
1577;SDS011;57623;53.608;10.004;2022-10-03T12:31:52;3.77;;;1.80;;
1577;SDS011;57623;53.608;10.004;2022-10-03T12:34:48;8.90;;;2.33;;
1577;SDS011;57623;53.608;10.004;2022-10-03T12:37:42;5.33;;;2.13;;
1577;SDS011;57623;53.608;10.004;2022-10-03T12:40:33;8.23;;;2.43;;
1577;SDS011;57623;53.608;10.004;2022-10-03T12:43:29;6.00;;;2.13;;
1577;SDS011;57623;53.608;10.004;2022-10-03T12:46:26;2.70;;;1.40;;
1577;SDS011;57623;53.608;10.004;2022-10-03T12:49:33;3.23;;;1.50;;
1577;SDS011;57623;53.608;10.004;2022-10-03T12:52:26;5.50;;;1.97;;
1577;SDS011;57623;53.608;10.004;2022-10-03T12:55:19;7.93;;;2.00;;
1577;SDS011;57623;53.608;10.004;2022-10-03T12:58:12;5.20;;;1.80;;
1577;SDS011;57623;53.608;10.004;2022-10-03T13:01:05;5.20;;;1.40;;
1577;SDS011;57623;53.608;10.004;2022-10-03T13:03:59;6.80;;;2.30;;
1577;SDS011;57623;53.608;10.004;2022-10-03T13:06:58;3.10;;;1.40;;
1577;SDS011;57623;53.608;10.004;2022-10-03T13:13:02;5.00;;;1.70;;
1577;SDS011;57623;53.608;10.004;2022-10-03T13:16:01;6.87;;;1.93;;
1577;SDS011;57623;53.608;10.004;2022-10-03T13:18:54;3.30;;;1.50;;
1577;SDS011;57623;53.608;10.004;2022-10-03T13:21:56;5.70;;;1.50;;
1577;SDS011;57623;53.608;10.004;2022-10-03T13:24:53;4.87;;;1.50;;
1577;SDS011;57623;53.608;10.004;2022-10-03T13:27:46;5.17;;;1.63;;
1577;SDS011;57623;53.608;10.004;2022-10-03T13:30:38;6.43;;;1.87;;
1577;SDS011;57623;53.608;10.004;2022-10-03T13:33:31;7.63;;;2.67;;
1577;SDS011;57623;53.608;10.004;2022-10-03T13:36:23;4.90;;;2.50;;
1577;SDS011;57623;53.608;10.004;2022-10-03T13:39:14;4.70;;;2.13;;
1577;SDS011;57623;53.608;10.004;2022-10-03T13:42:08;3.23;;;1.50;;
1577;SDS011;57623;53.608;10.004;2022-10-03T13:45:10;5.13;;;2.20;;
1577;SDS011;57623;53.608;10.004;2022-10-03T13:48:03;5.00;;;1.93;;
1577;SDS011;57623;53.608;10.004;2022-10-03T13:50:56;7.47;;;1.40;;
1577;SDS011;57623;53.608;10.004;2022-10-03T13:53:52;5.53;;;1.90;;
1577;SDS011;57623;53.608;10.004;2022-10-03T13:56:48;3.87;;;1.90;;
1577;SDS011;57623;53.608;10.004;2022-10-03T13:59:44;6.03;;;1.90;;
1577;SDS011;57623;53.608;10.004;2022-10-03T14:02:38;5.13;;;2.50;;
1577;SDS011;57623;53.608;10.004;2022-10-03T14:11:40;5.87;;;1.63;;
1577;SDS011;57623;53.608;10.004;2022-10-03T14:14:40;6.30;;;1.70;;
1577;SDS011;57623;53.608;10.004;2022-10-03T14:17:34;4.73;;;1.80;;
1577;SDS011;57623;53.608;10.004;2022-10-03T14:20:28;4.03;;;1.60;;
1577;SDS011;57623;53.608;10.004;2022-10-03T14:23:20;5.70;;;1.90;;
1577;SDS011;57623;53.608;10.004;2022-10-03T14:26:12;3.67;;;1.57;;
1577;SDS011;57623;53.608;10.004;2022-10-03T14:29:03;4.53;;;1.67;;
1577;SDS011;57623;53.608;10.004;2022-10-03T14:31:55;4.37;;;2.20;;
1577;SDS011;57623;53.608;10.004;2022-10-03T14:34:46;5.20;;;2.00;;
1577;SDS011;57623;53.608;10.004;2022-10-03T14:37:39;4.50;;;1.50;;
1577;SDS011;57623;53.608;10.004;2022-10-03T14:40:33;4.53;;;1.60;;
1577;SDS011;57623;53.608;10.004;2022-10-03T14:43:30;4.33;;;1.70;;
1577;SDS011;57623;53.608;10.004;2022-10-03T14:46:21;7.33;;;2.30;;
1577;SDS011;57623;53.608;10.004;2022-10-03T14:49:15;4.20;;;1.60;;
1577;SDS011;57623;53.608;10.004;2022-10-03T14:52:26;4.90;;;1.93;;
1577;SDS011;57623;53.608;10.004;2022-10-03T14:55:17;5.33;;;2.23;;
1577;SDS011;57623;53.608;10.004;2022-10-03T14:58:11;5.80;;;2.17;;
1577;SDS011;57623;53.608;10.004;2022-10-03T15:01:03;7.27;;;2.30;;
1577;SDS011;57623;53.608;10.004;2022-10-03T15:03:57;6.17;;;2.00;;
1577;SDS011;57623;53.608;10.004;2022-10-03T15:06:51;8.33;;;2.33;;
1577;SDS011;57623;53.608;10.004;2022-10-03T15:09:41;4.67;;;2.13;;
1577;SDS011;57623;53.608;10.004;2022-10-03T15:12:30;5.97;;;2.10;;
1577;SDS011;57623;53.608;10.004;2022-10-03T15:15:23;4.80;;;2.50;;
1577;SDS011;57623;53.608;10.004;2022-10-03T15:18:13;7.43;;;2.07;;
1577;SDS011;57623;53.608;10.004;2022-10-03T15:21:03;5.60;;;2.40;;
1577;SDS011;57623;53.608;10.004;2022-10-03T15:23:54;5.67;;;2.23;;
1577;SDS011;57623;53.608;10.004;2022-10-03T15:26:46;5.83;;;2.67;;
1577;SDS011;57623;53.608;10.004;2022-10-03T15:29:36;9.80;;;2.20;;
1577;SDS011;57623;53.608;10.004;2022-10-03T15:32:27;6.80;;;2.67;;
1577;SDS011;57623;53.608;10.004;2022-10-03T15:35:17;8.93;;;2.03;;
1577;SDS011;57623;53.608;10.004;2022-10-03T15:38:11;6.63;;;1.90;;
1577;SDS011;57623;53.608;10.004;2022-10-03T15:41:06;6.50;;;2.57;;
1577;SDS011;57623;53.608;10.004;2022-10-03T15:43:56;4.17;;;2.07;;
1577;SDS011;57623;53.608;10.004;2022-10-03T15:46:51;4.40;;;1.80;;
1577;SDS011;57623;53.608;10.004;2022-10-03T15:49:43;7.60;;;2.23;;
1577;SDS011;57623;53.608;10.004;2022-10-03T15:52:36;5.23;;;1.90;;
1577;SDS011;57623;53.608;10.004;2022-10-03T15:55:28;5.17;;;1.77;;
1577;SDS011;57623;53.608;10.004;2022-10-03T15:58:25;5.53;;;1.97;;
1577;SDS011;57623;53.608;10.004;2022-10-03T16:01:22;3.53;;;1.63;;
1577;SDS011;57623;53.608;10.004;2022-10-03T16:04:15;4.77;;;1.90;;
1577;SDS011;57623;53.608;10.004;2022-10-03T16:07:06;5.50;;;2.20;;
1577;SDS011;57623;53.608;10.004;2022-10-03T16:09:59;5.63;;;2.40;;
1577;SDS011;57623;53.608;10.004;2022-10-03T16:12:53;6.33;;;2.37;;
1577;SDS011;57623;53.608;10.004;2022-10-03T16:15:52;4.47;;;2.33;;
1577;SDS011;57623;53.608;10.004;2022-10-03T16:18:52;2.93;;;1.70;;
1577;SDS011;57623;53.608;10.004;2022-10-03T16:21:43;4.73;;;2.10;;
1577;SDS011;57623;53.608;10.004;2022-10-03T16:24:33;6.63;;;1.90;;
1577;SDS011;57623;53.608;10.004;2022-10-03T16:27:22;5.10;;;2.00;;
1577;SDS011;57623;53.608;10.004;2022-10-03T16:30:13;7.20;;;2.27;;
1577;SDS011;57623;53.608;10.004;2022-10-03T16:33:08;7.93;;;2.57;;
1577;SDS011;57623;53.608;10.004;2022-10-03T16:36:00;7.17;;;2.30;;
1577;SDS011;57623;53.608;10.004;2022-10-03T16:38:50;4.47;;;1.87;;
1577;SDS011;57623;53.608;10.004;2022-10-03T16:41:40;5.13;;;2.17;;
1577;SDS011;57623;53.608;10.004;2022-10-03T16:44:37;8.37;;;2.27;;
1577;SDS011;57623;53.608;10.004;2022-10-03T16:47:27;9.37;;;4.27;;
1577;SDS011;57623;53.608;10.004;2022-10-03T16:50:19;10.40;;;4.70;;
1577;SDS011;57623;53.608;10.004;2022-10-03T16:53:13;6.00;;;3.17;;
1577;SDS011;57623;53.608;10.004;2022-10-03T16:56:03;7.70;;;2.80;;
1577;SDS011;57623;53.608;10.004;2022-10-03T16:58:53;4.70;;;2.30;;
1577;SDS011;57623;53.608;10.004;2022-10-03T17:01:43;6.03;;;2.77;;
1577;SDS011;57623;53.608;10.004;2022-10-03T17:04:35;6.00;;;2.90;;
1577;SDS011;57623;53.608;10.004;2022-10-03T17:07:26;5.33;;;2.40;;
1577;SDS011;57623;53.608;10.004;2022-10-03T17:10:23;7.23;;;2.20;;
1577;SDS011;57623;53.608;10.004;2022-10-03T17:13:16;7.27;;;2.90;;
1577;SDS011;57623;53.608;10.004;2022-10-03T17:16:11;8.47;;;2.53;;
1577;SDS011;57623;53.608;10.004;2022-10-03T17:19:07;6.33;;;2.40;;
1577;SDS011;57623;53.608;10.004;2022-10-03T17:22:02;11.20;;;2.80;;
1577;SDS011;57623;53.608;10.004;2022-10-03T17:25:02;8.20;;;2.57;;
1577;SDS011;57623;53.608;10.004;2022-10-03T17:27:57;8.57;;;2.67;;
1577;SDS011;57623;53.608;10.004;2022-10-03T17:30:53;5.97;;;2.57;;
1577;SDS011;57623;53.608;10.004;2022-10-03T17:33:54;8.10;;;3.43;;
1577;SDS011;57623;53.608;10.004;2022-10-03T17:40:13;6.00;;;3.33;;
1577;SDS011;57623;53.608;10.004;2022-10-03T17:43:13;5.97;;;2.80;;
1577;SDS011;57623;53.608;10.004;2022-10-03T17:46:05;6.27;;;2.73;;
1577;SDS011;57623;53.608;10.004;2022-10-03T17:49:04;6.33;;;2.23;;
1577;SDS011;57623;53.608;10.004;2022-10-03T17:51:56;5.20;;;2.33;;
1577;SDS011;57623;53.608;10.004;2022-10-03T17:54:54;9.53;;;3.20;;
1577;SDS011;57623;53.608;10.004;2022-10-03T17:57:52;6.17;;;2.40;;
1577;SDS011;57623;53.608;10.004;2022-10-03T18:00:53;7.80;;;2.53;;
1577;SDS011;57623;53.608;10.004;2022-10-03T18:03:55;7.73;;;2.63;;
1577;SDS011;57623;53.608;10.004;2022-10-03T18:06:50;8.33;;;2.40;;
1577;SDS011;57623;53.608;10.004;2022-10-03T18:09:44;8.20;;;2.70;;
1577;SDS011;57623;53.608;10.004;2022-10-03T18:12:40;6.40;;;2.70;;
1577;SDS011;57623;53.608;10.004;2022-10-03T18:15:38;7.93;;;2.60;;
1577;SDS011;57623;53.608;10.004;2022-10-03T18:24:54;7.63;;;2.20;;
1577;SDS011;57623;53.608;10.004;2022-10-03T18:27:50;4.77;;;2.33;;
1577;SDS011;57623;53.608;10.004;2022-10-03T18:30:49;8.43;;;2.60;;
1577;SDS011;57623;53.608;10.004;2022-10-03T18:33:49;5.00;;;2.00;;
1577;SDS011;57623;53.608;10.004;2022-10-03T18:36:49;5.33;;;2.80;;
1577;SDS011;57623;53.608;10.004;2022-10-03T18:39:43;4.90;;;2.43;;
1577;SDS011;57623;53.608;10.004;2022-10-03T18:42:39;8.13;;;2.43;;
1577;SDS011;57623;53.608;10.004;2022-10-03T18:45:28;10.20;;;3.07;;
1577;SDS011;57623;53.608;10.004;2022-10-03T18:48:30;5.03;;;2.37;;
1577;SDS011;57623;53.608;10.004;2022-10-03T18:51:31;6.47;;;2.67;;
1577;SDS011;57623;53.608;10.004;2022-10-03T18:54:27;4.63;;;2.67;;
1577;SDS011;57623;53.608;10.004;2022-10-03T18:57:26;6.60;;;2.93;;
1577;SDS011;57623;53.608;10.004;2022-10-03T19:00:24;6.37;;;2.80;;
1577;SDS011;57623;53.608;10.004;2022-10-03T19:03:18;6.50;;;2.87;;
1577;SDS011;57623;53.608;10.004;2022-10-03T19:06:19;6.90;;;2.50;;
1577;SDS011;57623;53.608;10.004;2022-10-03T19:09:12;6.10;;;2.20;;
1577;SDS011;57623;53.608;10.004;2022-10-03T19:12:20;7.37;;;2.60;;
1577;SDS011;57623;53.608;10.004;2022-10-03T19:15:16;4.33;;;2.40;;
1577;SDS011;57623;53.608;10.004;2022-10-03T19:18:18;7.27;;;2.30;;
1577;SDS011;57623;53.608;10.004;2022-10-03T19:21:17;6.40;;;2.73;;
1577;SDS011;57623;53.608;10.004;2022-10-03T19:24:14;8.13;;;3.00;;
1577;SDS011;57623;53.608;10.004;2022-10-03T19:27:41;5.87;;;2.60;;
1577;SDS011;57623;53.608;10.004;2022-10-03T19:30:42;6.87;;;3.10;;
1577;SDS011;57623;53.608;10.004;2022-10-03T19:33:33;8.73;;;2.53;;
1577;SDS011;57623;53.608;10.004;2022-10-03T19:36:29;4.70;;;2.80;;
1577;SDS011;57623;53.608;10.004;2022-10-03T19:39:18;4.20;;;2.97;;
1577;SDS011;57623;53.608;10.004;2022-10-03T19:42:29;8.23;;;2.77;;
1577;SDS011;57623;53.608;10.004;2022-10-03T19:45:24;6.20;;;2.63;;
1577;SDS011;57623;53.608;10.004;2022-10-03T19:48:20;9.40;;;3.47;;
1577;SDS011;57623;53.608;10.004;2022-10-03T19:51:22;7.93;;;3.70;;
1577;SDS011;57623;53.608;10.004;2022-10-03T19:54:42;7.50;;;3.03;;
1577;SDS011;57623;53.608;10.004;2022-10-03T19:57:40;10.20;;;3.57;;
1577;SDS011;57623;53.608;10.004;2022-10-03T20:00:35;7.80;;;3.70;;
1577;SDS011;57623;53.608;10.004;2022-10-03T20:03:40;7.23;;;3.10;;
1577;SDS011;57623;53.608;10.004;2022-10-03T20:06:49;5.00;;;2.90;;
1577;SDS011;57623;53.608;10.004;2022-10-03T20:09:59;6.43;;;3.27;;
1577;SDS011;57623;53.608;10.004;2022-10-03T20:12:58;6.07;;;3.10;;
1577;SDS011;57623;53.608;10.004;2022-10-03T20:15:56;7.83;;;4.43;;
1577;SDS011;57623;53.608;10.004;2022-10-03T20:18:55;5.97;;;3.20;;
1577;SDS011;57623;53.608;10.004;2022-10-03T20:22:06;6.33;;;3.17;;
1577;SDS011;57623;53.608;10.004;2022-10-03T20:25:22;5.43;;;3.20;;
1577;SDS011;57623;53.608;10.004;2022-10-03T20:28:32;6.00;;;3.10;;
1577;SDS011;57623;53.608;10.004;2022-10-03T20:31:49;6.10;;;3.07;;
1577;SDS011;57623;53.608;10.004;2022-10-03T20:35:12;7.63;;;3.60;;
1577;SDS011;57623;53.608;10.004;2022-10-03T20:38:29;4.77;;;3.60;;
1577;SDS011;57623;53.608;10.004;2022-10-03T20:41:47;5.80;;;4.00;;
1577;SDS011;57623;53.608;10.004;2022-10-03T20:47:58;6.50;;;3.90;;
1577;SDS011;57623;53.608;10.004;2022-10-03T20:52:43;6.33;;;3.63;;
1577;SDS011;57623;53.608;10.004;2022-10-03T20:57:40;7.50;;;3.90;;
1577;SDS011;57623;53.608;10.004;2022-10-03T21:00:51;10.60;;;4.53;;
1577;SDS011;57623;53.608;10.004;2022-10-03T21:04:22;6.33;;;4.27;;
1577;SDS011;57623;53.608;10.004;2022-10-03T21:07:35;7.27;;;4.07;;
1577;SDS011;57623;53.608;10.004;2022-10-03T21:10:36;8.77;;;4.40;;
1577;SDS011;57623;53.608;10.004;2022-10-03T21:13:45;7.47;;;4.00;;
1577;SDS011;57623;53.608;10.004;2022-10-03T21:17:10;7.10;;;4.00;;
1577;SDS011;57623;53.608;10.004;2022-10-03T21:20:14;7.93;;;4.17;;
1577;SDS011;57623;53.608;10.004;2022-10-03T21:23:11;6.93;;;4.00;;
1577;SDS011;57623;53.608;10.004;2022-10-03T21:26:33;15.10;;;5.63;;
1577;SDS011;57623;53.608;10.004;2022-10-03T21:29:36;10.60;;;5.30;;
1577;SDS011;57623;53.608;10.004;2022-10-03T21:32:51;10.67;;;5.17;;
1577;SDS011;57623;53.608;10.004;2022-10-03T21:36:04;9.20;;;4.90;;
1577;SDS011;57623;53.608;10.004;2022-10-03T21:39:13;9.13;;;4.87;;
1577;SDS011;57623;53.608;10.004;2022-10-03T21:42:30;6.80;;;4.10;;
1577;SDS011;57623;53.608;10.004;2022-10-03T21:45:42;8.53;;;3.90;;
1577;SDS011;57623;53.608;10.004;2022-10-03T21:48:56;5.73;;;3.77;;
1577;SDS011;57623;53.608;10.004;2022-10-03T21:55:39;4.90;;;3.37;;
1577;SDS011;57623;53.608;10.004;2022-10-03T21:58:45;7.83;;;3.40;;
1577;SDS011;57623;53.608;10.004;2022-10-03T22:01:54;5.70;;;3.10;;
1577;SDS011;57623;53.608;10.004;2022-10-03T22:05:06;8.73;;;3.30;;
1577;SDS011;57623;53.608;10.004;2022-10-03T22:08:19;4.27;;;2.80;;
1577;SDS011;57623;53.608;10.004;2022-10-03T22:11:28;6.33;;;3.77;;
1577;SDS011;57623;53.608;10.004;2022-10-03T22:14:39;6.27;;;2.90;;
1577;SDS011;57623;53.608;10.004;2022-10-03T22:17:48;4.37;;;3.10;;
1577;SDS011;57623;53.608;10.004;2022-10-03T22:21:00;4.70;;;3.00;;